This is the latest recevied weather packets stored in our database for station/object BG5HLN-13. If no packets are shown the sender has not sent any weather packets the latest 10 day(s).
| Time | Temp. | Humidity | Pressure | Rain* | Wind** | Luminosity | Snow |
|---|---|---|---|---|---|---|---|
| 1778132798 | 31.11° C | 67% | 1008.8 hPa | 0 mm | - | - | - |
| 1778132590 | 31.11° C | 67% | 1008.8 hPa | 0 mm | - | - | - |
| 1778131990 | 31.11° C | 67% | 1008.8 hPa | 0 mm | - | - | - |
| 1778131390 | 31.11° C | 66% | 1008.8 hPa | 0 mm | - | - | - |
| 1778131057 | 31.67° C | 66% | 1008.9 hPa | 0 mm | - | - | - |
| 1778130790 | 31.67° C | 66% | 1008.8 hPa | 0 mm | - | - | - |
| 1778130190 | 31.11° C | 66% | 1008.8 hPa | 0 mm | - | - | - |
| 1778129590 | 31.11° C | 67% | 1008.9 hPa | 0 mm | - | - | - |
| 1778128990 | 31.11° C | 67% | 1008.9 hPa | 0 mm | - | - | - |
| 1778128988 | 31.11° C | 67% | 1008.9 hPa | 0 mm | - | - | - |
| 1778128389 | 30.56° C | 67% | 1009.1 hPa | 0 mm | - | - | - |
| 1778127790 | 30° C | 67% | 1009.1 hPa | 0 mm | - | - | - |
| 1778127637 | 30° C | 64% | 1009.1 hPa | 0 mm | - | - | - |
| 1778127190 | 29.44° C | 64% | 1009.1 hPa | 0 mm | - | - | - |
| 1778106789 | 21.67° C | 82% | 1010.2 hPa | 0 mm | - | - | - |
| 1778106189 | 21.67° C | 82% | 1010.1 hPa | 0 mm | - | - | - |
| 1778102588 | 21.67° C | 82% | 1009.8 hPa | 0 mm | - | - | - |
| 1778098988 | 21.67° C | 82% | 1009.3 hPa | 0 mm | - | - | - |
| 1778098388 | 21.67° C | 82% | 1009.2 hPa | 0 mm | - | - | - |
| 1778097188 | 21.11° C | 82% | 1009.2 hPa | 0 mm | - | - | - |
| 1778092388 | 21.67° C | 81% | 1008.9 hPa | 0 mm | - | - | - |
| 1778089987 | 21.67° C | 82% | 1009.2 hPa | 0 mm | - | - | - |
| 1778088787 | 21.67° C | 83% | 1009.7 hPa | 0 mm | - | - | - |
| 1778073186 | 22.22° C | 81% | 1010.9 hPa | 0 mm | - | - | - |
| 1778070786 | 22.22° C | 80% | 1010.7 hPa | 0 mm | - | - | - |
* Rain latest hour (hover to see other rain measurements)
** Current wind speed in m/s (hover to see current wind gust speed)